Time;durP1;ratioP1;P1;durP2;ratioP2;P2;SDS_P1;SDS_P2;PMS_P1;PMS_P2;Temp;Humidity;BMP_temperature;BMP_pressure;BME280_temperature;BME280_humidity;BME280_pressure;Samples;Min_cycle;Max_cycle;Signal;HPM_P1;HPM_P2
2022/06/22 00:01:03;;;;;;;3.77;1.83;;;13.60;99.90;;;;;;5018829;28;20274;-72
2022/06/22 00:03:31;;;;;;;3.10;2.10;;;13.60;99.90;;;;;;5022427;28;20209;-71
2022/06/22 00:05:58;;;;;;;3.00;2.10;;;13.60;99.90;;;;;;5016863;28;20208;-71
2022/06/22 00:08:28;;;;;;;5.17;2.10;;;13.60;99.90;;;;;;5014826;28;20206;-71
2022/06/22 00:11:03;;;;;;;4.73;2.30;;;13.60;99.90;;;;;;5033100;28;20645;-72
2022/06/22 00:13:31;;;;;;;3.23;2.13;;;13.60;99.90;;;;;;5028643;28;20652;-71
2022/06/22 00:16:01;;;;;;;2.33;2.07;;;13.70;99.90;;;;;;5016755;28;20245;-71
2022/06/22 00:18:34;;;;;;;2.07;1.87;;;13.70;99.90;;;;;;5028486;28;20221;-72
2022/06/22 00:21:03;;;;;;;4.90;1.87;;;13.60;99.90;;;;;;5025463;28;20682;-72
2022/06/22 00:23:37;;;;;;;2.60;1.90;;;13.60;99.90;;;;;;5024593;28;20213;-72
2022/06/22 00:26:21;;;;;;;2.77;1.70;;;13.60;99.90;;;;;;5026004;28;20297;-71
2022/06/22 00:28:57;;;;;;;4.07;1.77;;;13.60;99.90;;;;;;5022456;28;20227;-71
2022/06/22 00:31:38;;;;;;;2.40;1.83;;;13.60;99.90;;;;;;5021948;28;20784;-71
2022/06/22 00:34:14;;;;;;;2.07;1.80;;;13.60;99.90;;;;;;5017771;28;20203;-72
2022/06/22 00:36:46;;;;;;;3.93;2.20;;;13.50;99.90;;;;;;5023982;28;20403;-71
2022/06/22 00:39:24;;;;;;;3.60;2.10;;;13.50;99.90;;;;;;5031018;28;20278;-71
2022/06/22 00:41:58;;;;;;;2.70;2.00;;;13.50;99.90;;;;;;5021954;28;20211;-71
2022/06/22 00:44:29;;;;;;;3.07;1.90;;;13.40;99.90;;;;;;5020759;28;20207;-71
2022/06/22 00:47:01;;;;;;;2.60;2.23;;;13.40;99.90;;;;;;5024064;28;20195;-72
2022/06/22 00:49:29;;;;;;;8.77;2.60;;;13.40;99.90;;;;;;5019568;28;20214;-71
2022/06/22 00:52:00;;;;;;;2.10;1.90;;;13.40;99.90;;;;;;5020458;28;20215;-72
2022/06/22 00:54:30;;;;;;;2.23;2.00;;;13.40;99.90;;;;;;5022083;28;20589;-71
2022/06/22 00:57:08;;;;;;;2.27;2.07;;;13.30;99.90;;;;;;5028859;28;20238;-71
2022/06/22 00:59:42;;;;;;;3.23;2.00;;;13.30;99.90;;;;;;5017952;28;20274;-71
2022/06/22 01:02:37;;;;;;;2.27;2.00;;;13.20;99.90;;;;;;5026009;28;20556;-71
2022/06/22 01:05:27;;;;;;;2.83;1.90;;;13.20;99.90;;;;;;5024599;28;20207;-71
2022/06/22 01:08:01;;;;;;;2.63;2.10;;;13.20;99.90;;;;;;5029660;28;20548;-72
2022/06/22 01:10:33;;;;;;;3.13;2.20;;;13.20;99.90;;;;;;5018111;28;20227;-70
2022/06/22 01:13:07;;;;;;;2.17;2.03;;;13.20;99.90;;;;;;5018250;28;20195;-72
2022/06/22 01:15:38;;;;;;;3.70;2.20;;;13.10;99.90;;;;;;5024432;28;20254;-71
2022/06/22 01:18:09;;;;;;;2.10;1.87;;;13.10;99.90;;;;;;5016933;28;20583;-71
2022/06/22 01:20:52;;;;;;;5.87;1.80;;;13.10;99.90;;;;;;5022657;28;20218;-72
2022/06/22 01:23:46;;;;;;;2.17;1.97;;;13.00;99.90;;;;;;5032827;28;20202;-72
2022/06/22 01:26:44;;;;;;;3.43;2.37;;;13.00;99.90;;;;;;5023792;28;20208;-72
2022/06/22 01:29:15;;;;;;;2.40;2.20;;;13.00;99.90;;;;;;5019846;28;20242;-72
2022/06/22 01:31:46;;;;;;;4.37;2.40;;;13.00;99.90;;;;;;5028617;28;20266;-71
2022/06/22 01:34:17;;;;;;;2.27;2.00;;;12.90;99.90;;;;;;5024257;28;20206;-71
2022/06/22 01:36:44;;;;;;;2.13;1.93;;;12.90;99.90;;;;;;5037393;28;20238;-71
2022/06/22 01:39:13;;;;;;;2.87;2.40;;;12.90;99.90;;;;;;5030977;28;20672;-72
2022/06/22 01:41:46;;;;;;;2.77;2.50;;;12.90;99.90;;;;;;5020147;28;20230;-73
2022/06/22 01:44:23;;;;;;;4.47;2.57;;;12.80;99.90;;;;;;5018051;28;20203;-73
2022/06/22 01:47:11;;;;;;;2.83;2.53;;;12.80;99.90;;;;;;5032212;28;20201;-72
2022/06/22 01:49:42;;;;;;;3.17;2.53;;;12.80;99.90;;;;;;5028837;28;20199;-71
2022/06/22 01:52:16;;;;;;;4.83;2.67;;;12.70;99.90;;;;;;5025073;28;20209;-71
2022/06/22 01:54:50;;;;;;;4.30;2.67;;;12.70;99.90;;;;;;5025823;28;20199;-72
2022/06/22 01:57:21;;;;;;;3.60;2.43;;;12.70;99.90;;;;;;5026900;28;20226;-71
2022/06/22 01:59:58;;;;;;;4.40;2.47;;;12.70;99.90;;;;;;5023053;28;20218;-72
2022/06/22 02:02:29;;;;;;;4.67;2.20;;;12.70;99.90;;;;;;5019293;28;20659;-72
2022/06/22 02:05:03;;;;;;;4.37;2.90;;;12.70;99.90;;;;;;5017013;28;20203;-72
2022/06/22 02:07:45;;;;;;;4.07;2.47;;;12.70;99.90;;;;;;5018828;28;20191;-72
2022/06/22 02:10:30;;;;;;;3.47;2.67;;;12.60;99.90;;;;;;5021104;28;20608;-71
2022/06/22 02:13:05;;;;;;;3.93;2.80;;;12.60;99.90;;;;;;5023670;28;20207;-72
2022/06/22 02:15:53;;;;;;;4.27;2.60;;;12.60;99.90;;;;;;5020249;28;20217;-72
2022/06/22 02:18:26;;;;;;;2.47;2.27;;;12.60;99.90;;;;;;5026108;28;20702;-71
2022/06/22 02:20:54;;;;;;;4.77;2.43;;;12.60;99.90;;;;;;5023745;28;20203;-71
2022/06/22 02:23:26;;;;;;;4.17;2.53;;;12.60;99.90;;;;;;5016420;28;20215;-71
2022/06/22 02:26:01;;;;;;;3.27;2.80;;;12.60;99.90;;;;;;5014627;28;20649;-71
2022/06/22 02:28:29;;;;;;;3.23;2.40;;;12.60;99.90;;;;;;5019600;28;20567;-73
2022/06/22 02:30:59;;;;;;;6.17;2.80;;;12.60;99.90;;;;;;5029628;28;20824;-73
2022/06/22 02:33:27;;;;;;;4.03;3.10;;;12.60;99.90;;;;;;5037003;28;20202;-72
2022/06/22 02:35:56;;;;;;;7.37;3.40;;;12.60;99.90;;;;;;5040684;28;20268;-72
2022/06/22 02:38:23;;;;;;;3.13;2.63;;;12.50;99.90;;;;;;5033027;28;20269;-71
2022/06/22 02:46:29;;;;;;;3.70;2.73;;;12.50;99.90;;;;;;5032742;28;20197;-72
2022/06/22 02:49:01;;;;;;;3.60;2.87;;;12.50;99.90;;;;;;5033138;28;20202;-71
2022/06/22 02:51:32;;;;;;;6.67;3.20;;;12.50;99.90;;;;;;5022048;28;20246;-71
2022/06/22 02:54:03;;;;;;;4.73;3.20;;;12.60;99.90;;;;;;5028766;28;20215;-70
2022/06/22 02:56:36;;;;;;;2.87;2.67;;;12.60;99.90;;;;;;5025944;28;20304;-72
2022/06/22 02:59:03;;;;;;;5.43;2.57;;;12.60;99.90;;;;;;5033940;28;20210;-70
2022/06/22 03:01:34;;;;;;;5.03;2.83;;;12.70;99.90;;;;;;5021777;28;20206;-71
2022/06/22 03:04:05;;;;;;;3.07;2.73;;;12.70;99.90;;;;;;5034025;28;20675;-71
2022/06/22 03:06:36;;;;;;;6.47;2.80;;;12.70;99.90;;;;;;5031948;28;20207;-71
2022/06/22 03:09:05;;;;;;;4.20;2.80;;;12.80;99.90;;;;;;5031976;28;20693;-71
2022/06/22 03:11:34;;;;;;;4.00;3.20;;;12.80;99.90;;;;;;5022952;28;20238;-71
2022/06/22 03:14:12;;;;;;;4.73;3.30;;;12.90;99.90;;;;;;5032700;28;20213;-71
2022/06/22 03:16:44;;;;;;;3.60;2.90;;;12.90;99.90;;;;;;5029550;28;20238;-71
2022/06/22 03:19:16;;;;;;;3.90;3.40;;;13.00;99.90;;;;;;5032276;28;20267;-73
2022/06/22 03:21:43;;;;;;;3.40;3.10;;;13.00;99.90;;;;;;5021162;28;20226;-71
2022/06/22 03:24:18;;;;;;;3.80;3.03;;;13.10;99.90;;;;;;5032032;28;20301;-72
2022/06/22 03:26:53;;;;;;;2.53;2.33;;;13.20;99.90;;;;;;5026291;28;20214;-71
2022/06/22 03:29:25;;;;;;;5.83;2.83;;;13.30;99.90;;;;;;5022415;28;20828;-72
2022/06/22 03:31:58;;;;;;;3.70;2.30;;;13.40;99.90;;;;;;5025560;28;20207;-71
2022/06/22 03:34:29;;;;;;;3.57;3.27;;;13.50;99.90;;;;;;5030271;28;20205;-71
2022/06/22 03:37:02;;;;;;;4.07;2.80;;;13.70;99.90;;;;;;5023733;28;20223;-72
2022/06/22 03:39:34;;;;;;;3.10;2.77;;;13.70;99.90;;;;;;5033538;28;20202;-72
2022/06/22 03:42:05;;;;;;;2.90;2.70;;;13.80;99.90;;;;;;5023953;28;20218;-71
2022/06/22 03:44:36;;;;;;;4.43;2.90;;;13.80;99.90;;;;;;5027441;28;20294;-72
2022/06/22 03:47:10;;;;;;;6.60;2.70;;;13.80;99.90;;;;;;5028850;28;20204;-72
2022/06/22 03:49:41;;;;;;;3.03;2.67;;;13.90;99.90;;;;;;5018728;28;20289;-72
2022/06/22 03:52:13;;;;;;;4.40;2.60;;;14.00;99.90;;;;;;5030538;28;20210;-70
2022/06/22 03:54:47;;;;;;;2.90;2.30;;;14.00;99.90;;;;;;5018707;28;20217;-72
2022/06/22 03:57:18;;;;;;;5.20;3.50;;;14.10;99.90;;;;;;5028836;28;20587;-70
2022/06/22 03:59:46;;;;;;;5.87;2.80;;;14.20;99.90;;;;;;5020695;28;20207;-72
2022/06/22 04:02:17;;;;;;;2.90;2.60;;;14.30;99.90;;;;;;5028627;28;20234;-72
2022/06/22 04:04:44;;;;;;;5.27;3.20;;;14.30;99.90;;;;;;5018748;28;20675;-72
2022/06/22 04:07:13;;;;;;;4.83;2.73;;;14.40;99.90;;;;;;5029075;28;20214;-72
2022/06/22 04:09:48;;;;;;;4.03;2.30;;;14.50;99.90;;;;;;5022956;28;20614;-71
2022/06/22 04:12:21;;;;;;;3.60;3.07;;;14.50;99.90;;;;;;5019217;28;20236;-71
2022/06/22 04:14:54;;;;;;;4.97;2.83;;;14.60;99.90;;;;;;5021606;28;20690;-71
2022/06/22 04:17:29;;;;;;;5.00;3.20;;;14.70;99.90;;;;;;5024514;28;20240;-71
2022/06/22 04:20:02;;;;;;;3.60;2.70;;;14.70;99.90;;;;;;5023587;28;20221;-72
2022/06/22 04:22:31;;;;;;;3.43;2.80;;;14.70;99.90;;;;;;5036543;28;20245;-72
2022/06/22 04:25:02;;;;;;;4.63;2.90;;;14.70;99.90;;;;;;5028639;28;20278;-72
2022/06/22 04:27:33;;;;;;;3.63;2.80;;;14.70;99.90;;;;;;5021368;28;20203;-72
2022/06/22 04:30:05;;;;;;;3.90;2.70;;;14.80;99.90;;;;;;5023198;28;20249;-71
2022/06/22 04:32:40;;;;;;;5.77;2.83;;;14.70;99.90;;;;;;5021014;28;20239;-73
2022/06/22 04:35:24;;;;;;;3.53;3.00;;;14.80;99.90;;;;;;5020705;28;20292;-71
2022/06/22 04:37:56;;;;;;;3.30;2.47;;;14.80;99.90;;;;;;5017366;28;20298;-70
2022/06/22 04:40:30;;;;;;;6.73;3.17;;;14.90;99.90;;;;;;5015030;28;20209;-72
2022/06/22 04:43:00;;;;;;;4.33;2.67;;;14.90;99.90;;;;;;5028085;28;20552;-71
2022/06/22 04:45:30;;;;;;;3.70;2.60;;;15.00;99.90;;;;;;5020809;28;20564;-70
2022/06/22 04:48:03;;;;;;;7.40;3.00;;;15.00;99.90;;;;;;5024638;28;20215;-71
2022/06/22 04:50:31;;;;;;;4.43;2.50;;;15.10;99.90;;;;;;5023114;28;20202;-71
2022/06/22 04:53:02;;;;;;;3.67;2.57;;;15.10;99.90;;;;;;5030106;28;20222;-72
2022/06/22 04:55:30;;;;;;;3.67;2.57;;;15.20;99.90;;;;;;5026011;28;20246;-71
2022/06/22 04:58:04;;;;;;;3.97;2.97;;;15.30;99.90;;;;;;5018324;28;20606;-71
2022/06/22 05:00:34;;;;;;;4.47;2.40;;;15.30;99.90;;;;;;5026379;28;20218;-70
2022/06/22 05:03:06;;;;;;;2.47;2.27;;;15.40;99.90;;;;;;5029994;28;20210;-71
2022/06/22 05:05:35;;;;;;;4.23;2.27;;;15.40;99.90;;;;;;5018302;28;20214;-71
2022/06/22 05:08:08;;;;;;;3.67;2.40;;;15.50;99.90;;;;;;5016562;28;20245;-70
2022/06/22 05:10:48;;;;;;;5.33;2.90;;;15.60;99.90;;;;;;5024802;28;20209;-70
2022/06/22 05:13:17;;;;;;;3.10;2.70;;;15.70;99.90;;;;;;5027667;28;20214;-74
2022/06/22 05:15:48;;;;;;;4.60;2.93;;;15.80;99.90;;;;;;5019115;28;20242;-71
2022/06/22 05:18:21;;;;;;;4.43;2.90;;;15.80;99.90;;;;;;5016854;28;20215;-71
2022/06/22 05:20:52;;;;;;;4.50;2.30;;;15.90;99.90;;;;;;5017778;28;20206;-71
2022/06/22 05:23:21;;;;;;;6.67;2.10;;;15.80;99.90;;;;;;5016605;28;20662;-72
2022/06/22 05:25:50;;;;;;;5.57;3.33;;;16.00;99.90;;;;;;5021557;28;20275;-71
2022/06/22 05:28:23;;;;;;;4.97;3.23;;;16.00;99.90;;;;;;5016981;28;20200;-71
2022/06/22 05:30:58;;;;;;;3.90;2.23;;;16.10;99.90;;;;;;5025332;28;20195;-72
2022/06/22 05:33:28;;;;;;;4.00;2.30;;;16.30;99.90;;;;;;5020202;28;20217;-72
2022/06/22 05:35:59;;;;;;;6.17;2.47;;;16.40;99.90;;;;;;5016761;28;20254;-72
2022/06/22 05:38:27;;;;;;;6.53;2.90;;;16.50;99.90;;;;;;5023676;28;20644;-73
2022/06/22 05:40:55;;;;;;;6.87;2.60;;;16.50;99.90;;;;;;5021608;28;20206;-72
2022/06/22 05:43:23;;;;;;;3.53;2.83;;;16.50;99.90;;;;;;5021399;28;20222;-72
2022/06/22 05:45:55;;;;;;;5.63;2.70;;;16.50;99.90;;;;;;5023402;28;20210;-72
2022/06/22 05:48:26;;;;;;;3.57;2.13;;;16.50;99.90;;;;;;5028857;28;20202;-71
2022/06/22 05:50:57;;;;;;;6.07;3.20;;;16.50;99.90;;;;;;5024486;28;20204;-73
2022/06/22 05:53:28;;;;;;;3.97;2.40;;;16.60;99.90;;;;;;5021154;28;20205;-73
2022/06/22 05:56:08;;;;;;;5.43;2.70;;;16.60;99.90;;;;;;5021288;28;20229;-74
2022/06/22 05:58:41;;;;;;;7.43;2.27;;;16.60;99.90;;;;;;5027092;28;20329;-73
2022/06/22 06:01:18;;;;;;;4.63;2.60;;;16.70;99.90;;;;;;5025223;28;20218;-76
2022/06/22 06:03:58;;;;;;;6.17;3.43;;;16.70;99.90;;;;;;5021401;28;20312;-72
2022/06/22 06:06:28;;;;;;;6.30;2.70;;;16.80;99.90;;;;;;5019010;28;20661;-77
2022/06/22 06:08:59;;;;;;;4.90;2.30;;;16.80;99.90;;;;;;5020826;28;20214;-77
2022/06/22 06:11:34;;;;;;;6.70;2.93;;;16.90;99.90;;;;;;5021867;28;20252;-76
2022/06/22 06:14:05;;;;;;;4.83;2.87;;;16.90;99.90;;;;;;5020151;28;20307;-78
2022/06/22 06:16:43;;;;;;;3.67;2.30;;;17.00;99.90;;;;;;5020518;28;20230;-78
2022/06/22 06:19:14;;;;;;;5.73;2.70;;;17.00;99.90;;;;;;5033999;28;20221;-78
2022/06/22 06:21:41;;;;;;;2.90;2.60;;;17.10;99.90;;;;;;5028219;28;20572;-77
2022/06/22 06:24:18;;;;;;;4.70;2.60;;;17.20;99.90;;;;;;5018698;28;20692;-76
2022/06/22 06:29:40;;;;;;;6.10;2.80;;;17.20;99.90;;;;;;5018239;28;20280;-76
2022/06/22 06:32:27;;;;;;;4.40;2.67;;;17.20;99.90;;;;;;5018669;28;20230;-73
2022/06/22 06:35:00;;;;;;;5.77;2.60;;;17.30;99.90;;;;;;5024014;28;20198;-76
2022/06/22 06:37:42;;;;;;;4.77;2.50;;;17.40;99.90;;;;;;5019588;28;20691;-75
2022/06/22 06:40:14;;;;;;;3.93;2.57;;;17.50;99.90;;;;;;5016489;28;20292;-74
2022/06/22 06:42:46;;;;;;;5.37;2.30;;;17.60;99.90;;;;;;5024743;28;20205;-75
2022/06/22 06:45:16;;;;;;;4.67;2.13;;;17.70;99.90;;;;;;5016836;28;20207;-74
2022/06/22 06:47:48;;;;;;;4.33;2.23;;;17.70;99.90;;;;;;5022528;28;20864;-73
2022/06/22 06:50:21;;;;;;;5.60;2.30;;;17.80;99.90;;;;;;5018110;28;20229;-72
2022/06/22 06:52:59;;;;;;;7.60;2.47;;;17.90;99.90;;;;;;5016332;28;20838;-75
2022/06/22 06:55:33;;;;;;;4.90;2.30;;;18.00;99.90;;;;;;5017001;28;20214;-77
2022/06/22 06:58:06;;;;;;;4.65;2.42;;;18.10;99.90;;;;;;5019970;28;20632;-76
2022/06/22 07:00:34;;;;;;;4.70;2.03;;;18.20;99.90;;;;;;5016991;28;20587;-73
2022/06/22 07:03:01;;;;;;;5.95;2.08;;;18.30;99.90;;;;;;5019733;28;20265;-73
2022/06/22 07:05:31;;;;;;;4.13;2.22;;;18.40;99.90;;;;;;5021230;28;20707;-74
2022/06/22 07:08:05;;;;;;;6.47;2.73;;;18.50;99.90;;;;;;5021500;28;20206;-77
2022/06/22 07:10:36;;;;;;;5.10;2.60;;;19.20;99.90;;;;;;5025152;28;20207;-75
2022/06/22 07:13:08;;;;;;;3.67;2.00;;;18.70;99.90;;;;;;5019164;28;20223;-73
2022/06/22 07:15:39;;;;;;;3.07;1.93;;;18.80;99.90;;;;;;5021806;28;20302;-74
2022/06/22 07:18:16;;;;;;;2.90;1.65;;;18.90;99.90;;;;;;5021837;28;20634;-75
2022/06/22 07:20:49;;;;;;;2.05;1.80;;;19.10;99.90;;;;;;5020167;28;20214;-74
2022/06/22 07:23:23;;;;;;;3.88;1.80;;;19.20;99.90;;;;;;5023212;28;20211;-75
2022/06/22 07:25:53;;;;;;;3.03;1.98;;;19.40;99.90;;;;;;5020090;28;20206;-75
2022/06/22 07:28:24;;;;;;;3.35;2.00;;;19.50;99.90;;;;;;5023514;28;20202;-73
2022/06/22 07:30:55;;;;;;;2.03;1.40;;;19.60;99.90;;;;;;5020928;28;20206;-75
2022/06/22 07:33:31;;;;;;;6.25;1.67;;;19.70;99.90;;;;;;5020221;28;20297;-74
2022/06/22 07:36:04;;;;;;;4.93;1.70;;;19.70;99.90;;;;;;5016721;28;20595;-75
2022/06/22 07:38:41;;;;;;;2.85;1.55;;;19.80;99.90;;;;;;5015058;28;20211;-74
2022/06/22 07:41:22;;;;;;;2.17;1.88;;;19.80;99.90;;;;;;5022128;28;20221;-76
2022/06/22 07:43:53;;;;;;;4.45;2.00;;;19.90;99.90;;;;;;5021403;28;20210;-74
2022/06/22 07:46:27;;;;;;;2.85;1.60;;;20.10;99.90;;;;;;5022876;28;20692;-74
2022/06/22 07:48:59;;;;;;;5.43;1.75;;;20.20;99.90;;;;;;5016367;28;20203;-74
2022/06/22 07:51:31;;;;;;;3.83;1.65;;;20.40;99.90;;;;;;5014991;28;20199;-74
2022/06/22 07:54:04;;;;;;;3.42;1.58;;;20.50;99.90;;;;;;5018760;28;20219;-76
2022/06/22 07:56:42;;;;;;;2.58;1.60;;;20.70;99.90;;;;;;5025089;28;20299;-78
2022/06/22 07:59:12;;;;;;;3.60;1.50;;;20.80;99.90;;;;;;5022464;28;20230;-79
2022/06/22 08:01:41;;;;;;;2.10;1.60;;;20.90;99.90;;;;;;5024409;28;20199;-77
2022/06/22 08:04:14;;;;;;;1.10;1.00;;;21.00;99.90;;;;;;5020062;28;20214;-77
2022/06/22 08:06:47;;;;;;;2.72;1.50;;;21.20;99.90;;;;;;5018224;28;20222;-78
2022/06/22 08:09:18;;;;;;;8.77;1.90;;;21.20;99.90;;;;;;5022205;28;20203;-77
2022/06/22 08:11:51;;;;;;;3.47;1.70;;;21.30;99.90;;;;;;5021717;28;20195;-77
2022/06/22 08:14:24;;;;;;;2.95;1.70;;;21.40;99.90;;;;;;5017988;28;20207;-76
2022/06/22 08:16:57;;;;;;;2.45;1.70;;;21.40;99.90;;;;;;5020949;28;20267;-77
2022/06/22 08:19:27;;;;;;;6.78;1.77;;;21.50;99.90;;;;;;5021525;28;20594;-78
2022/06/22 08:22:00;;;;;;;2.40;1.23;;;21.50;99.90;;;;;;5033378;28;20215;-76
2022/06/22 08:24:28;;;;;;;5.13;1.83;;;21.50;99.90;;;;;;5033126;28;20207;-77
2022/06/22 08:26:58;;;;;;;3.78;2.00;;;21.50;99.90;;;;;;5024490;28;20215;-76
2022/06/22 08:29:30;;;;;;;4.45;1.50;;;21.60;99.90;;;;;;5017356;28;20313;-77
2022/06/22 08:32:00;;;;;;;3.05;1.80;;;21.70;99.90;;;;;;5024861;28;20290;-77
2022/06/22 08:34:34;;;;;;;2.40;1.83;;;21.80;99.90;;;;;;5028487;28;20235;-76
2022/06/22 08:37:07;;;;;;;4.25;1.48;;;22.00;99.90;;;;;;5023987;28;20210;-79
2022/06/22 08:39:40;;;;;;;6.18;1.63;;;22.10;99.90;;;;;;5028936;28;20226;-77
2022/06/22 08:42:22;;;;;;;4.32;1.80;;;22.30;99.90;;;;;;5029926;28;20221;-77
2022/06/22 08:45:02;;;;;;;2.42;1.42;;;22.50;99.90;;;;;;5032289;28;20199;-78
2022/06/22 08:47:50;;;;;;;5.93;1.42;;;22.70;99.90;;;;;;5022439;28;20218;-77
2022/06/22 08:50:46;;;;;;;2.33;1.50;;;22.90;99.40;;;;;;5023323;28;20210;-77
2022/06/22 08:53:38;;;;;;;2.67;1.67;;;23.00;98.30;;;;;;5026923;28;20254;-76
2022/06/22 08:56:18;;;;;;;3.13;1.80;;;23.10;97.80;;;;;;5026252;28;20390;-77
2022/06/22 08:59:03;;;;;;;3.38;1.60;;;23.20;97.30;;;;;;5026814;28;20693;-76
2022/06/22 09:01:40;;;;;;;3.15;1.65;;;23.40;96.70;;;;;;5032987;28;20205;-77
2022/06/22 09:04:23;;;;;;;2.35;1.52;;;23.50;95.90;;;;;;5017375;28;20222;-78
2022/06/22 09:07:32;;;;;;;3.40;1.80;;;23.70;95.50;;;;;;5023870;28;20214;-77
2022/06/22 09:10:34;;;;;;;3.60;1.85;;;23.80;95.10;;;;;;5029164;28;20230;-77
2022/06/22 09:13:21;;;;;;;3.10;1.30;;;24.00;95.10;;;;;;5018043;28;20209;-76
2022/06/22 09:15:58;;;;;;;3.15;1.50;;;24.10;94.40;;;;;;5010357;28;20266;-76
2022/06/22 09:18:44;;;;;;;2.55;1.35;;;24.30;94.20;;;;;;5025454;28;20221;-77
2022/06/22 09:21:29;;;;;;;2.15;1.35;;;24.40;93.50;;;;;;5033049;28;20213;-77
2022/06/22 09:24:07;;;;;;;1.75;1.38;;;24.40;93.10;;;;;;5017173;28;20318;-76
2022/06/22 09:26:43;;;;;;;2.67;1.67;;;24.40;92.70;;;;;;5017881;28;20241;-77
2022/06/22 09:29:26;;;;;;;4.00;1.85;;;24.40;92.70;;;;;;5016548;28;20222;-77
2022/06/22 09:32:19;;;;;;;5.50;1.60;;;24.30;92.30;;;;;;5032742;28;20210;-76
2022/06/22 09:35:23;;;;;;;3.15;1.20;;;24.20;92.40;;;;;;5020988;28;20207;-77
2022/06/22 09:38:24;;;;;;;2.78;1.50;;;24.10;92.10;;;;;;5020255;28;20238;-76
2022/06/22 09:40:59;;;;;;;5.25;1.67;;;24.00;92.20;;;;;;5000886;28;20641;-77
2022/06/22 09:44:01;;;;;;;6.00;1.58;;;24.20;92.20;;;;;;5035826;28;20217;-77
2022/06/22 09:47:00;;;;;;;2.63;1.27;;;24.40;91.50;;;;;;5024144;28;20669;-77
2022/06/22 09:49:41;;;;;;;3.60;1.63;;;24.40;90.80;;;;;;5022700;28;20301;-76
2022/06/22 09:52:47;;;;;;;2.17;1.40;;;24.30;90.20;;;;;;5016940;28;20203;-77
2022/06/22 09:59:13;;;;;;;2.90;1.50;;;24.70;89.80;;;;;;5016338;28;20218;-76
2022/06/22 10:01:49;;;;;;;4.95;1.10;;;25.10;88.40;;;;;;5026262;28;20230;-77
2022/06/22 10:04:53;;;;;;;3.65;1.52;;;25.50;86.50;;;;;;5028539;28;20249;-77
2022/06/22 10:07:36;;;;;;;2.33;1.70;;;25.70;85.10;;;;;;5011106;28;20679;-76
2022/06/22 10:10:14;;;;;;;3.00;1.30;;;25.70;84.70;;;;;;5034013;28;20224;-77
2022/06/22 10:13:09;;;;;;;5.40;3.67;;;25.60;84.70;;;;;;5018242;28;20214;-77
2022/06/22 10:15:59;;;;;;;2.25;1.40;;;25.60;84.90;;;;;;5018153;28;20599;-77
2022/06/22 10:18:44;;;;;;;2.85;1.20;;;25.50;84.10;;;;;;5020552;28;20603;-77
2022/06/22 10:21:21;;;;;;;3.72;1.40;;;25.30;83.20;;;;;;5022039;28;20199;-76
2022/06/22 10:24:13;;;;;;;2.88;1.38;;;25.10;83.00;;;;;;5016881;28;20215;-75
2022/06/22 10:27:00;;;;;;;3.25;1.40;;;25.10;82.90;;;;;;5027142;28;20214;-76
2022/06/22 10:29:53;;;;;;;2.00;1.20;;;25.20;82.90;;;;;;5030359;28;20639;-78
2022/06/22 10:32:49;;;;;;;1.48;1.10;;;25.40;82.00;;;;;;5022933;28;20310;-80
2022/06/22 10:35:30;;;;;;;2.17;1.13;;;25.40;81.60;;;;;;5026707;28;20303;-78
2022/06/22 10:38:14;;;;;;;1.55;1.20;;;25.50;81.70;;;;;;5020290;28;20291;-78
2022/06/22 10:47:28;;;;;;;2.65;1.65;;;26.20;77.30;;;;;;5021501;28;20246;-78
2022/06/22 10:50:14;;;;;;;3.78;1.42;;;26.30;75.90;;;;;;5016336;28;20206;-75
2022/06/22 10:53:05;;;;;;;4.18;1.25;;;26.50;75.50;;;;;;5017528;28;20203;-76
2022/06/22 10:55:47;;;;;;;3.35;1.42;;;26.50;74.60;;;;;;5024175;28;20221;-76
2022/06/22 10:58:29;;;;;;;3.60;1.30;;;26.50;74.30;;;;;;5017675;28;20206;-74
2022/06/22 11:01:24;;;;;;;4.50;1.50;;;26.50;73.40;;;;;;5022736;28;20238;-75
2022/06/22 11:04:47;;;;;;;3.08;1.10;;;26.50;72.50;;;;;;5027043;28;20207;-74
2022/06/22 11:07:44;;;;;;;3.65;1.38;;;26.60;71.90;;;;;;5032247;28;20210;-78
2022/06/22 11:10:37;;;;;;;3.80;1.58;;;26.70;72.20;;;;;;5005584;28;20253;-73
2022/06/22 11:13:17;;;;;;;1.30;1.20;;;26.80;70.30;;;;;;5010732;28;20695;-78
2022/06/22 11:16:16;;;;;;;4.90;1.40;;;26.80;69.60;;;;;;5021452;28;20246;-79
2022/06/22 11:19:14;;;;;;;2.53;1.33;;;26.80;67.80;;;;;;5027606;28;20258;-76
2022/06/22 11:22:01;;;;;;;3.65;1.50;;;26.70;68.30;;;;;;5019956;28;20199;-75
2022/06/22 11:25:02;;;;;;;4.38;1.50;;;26.70;68.90;;;;;;5028374;28;20306;-76
2022/06/22 11:33:56;;;;;;;2.65;1.23;;;26.90;65.90;;;;;;4999919;28;20203;-76
2022/06/22 11:36:33;;;;;;;1.65;1.10;;;26.90;65.50;;;;;;4987619;28;20261;-76
2022/06/22 11:39:32;;;;;;;3.50;1.60;;;26.80;65.80;;;;;;5028567;28;20360;-77
2022/06/22 11:42:23;;;;;;;2.35;1.10;;;26.70;66.90;;;;;;5027202;28;20199;-78
2022/06/22 11:48:13;;;;;;;2.28;1.30;;;27.00;65.80;;;;;;5020539;28;20612;-77
2022/06/22 11:50:54;;;;;;;3.17;1.23;;;27.10;63.40;;;;;;5033872;28;20290;-78
2022/06/22 11:53:36;;;;;;;2.65;1.25;;;27.20;63.00;;;;;;5027308;28;20210;-77
2022/06/22 11:56:15;;;;;;;3.22;1.30;;;27.20;62.90;;;;;;5028667;28;20218;-76
2022/06/22 11:59:07;;;;;;;2.25;1.08;;;27.20;63.40;;;;;;5021868;28;20235;-77
2022/06/22 12:01:59;;;;;;;2.53;1.33;;;27.40;63.70;;;;;;5025708;28;20294;-76
2022/06/22 12:04:54;;;;;;;1.10;0.90;;;27.40;63.20;;;;;;5020913;28;20210;-78
2022/06/22 12:08:00;;;;;;;1.73;1.33;;;27.40;62.40;;;;;;5024041;28;20280;-78
2022/06/22 12:10:47;;;;;;;3.47;1.63;;;27.50;61.90;;;;;;5026666;28;20199;-78
2022/06/22 12:13:29;;;;;;;2.38;1.42;;;27.20;61.10;;;;;;5030479;28;20206;-78
2022/06/22 12:16:12;;;;;;;1.63;1.30;;;26.90;62.10;;;;;;5024738;28;20304;-78
2022/06/22 12:18:55;;;;;;;2.65;1.20;;;27.00;63.20;;;;;;5024432;28;20269;-79
2022/06/22 12:21:45;;;;;;;3.92;1.02;;;27.00;62.80;;;;;;5023498;28;20230;-78
2022/06/22 12:24:23;;;;;;;1.60;1.20;;;27.10;62.60;;;;;;5023391;28;20215;-77
2022/06/22 12:26:58;;;;;;;3.22;1.55;;;27.00;62.40;;;;;;5018078;28;20222;-78
2022/06/22 12:29:49;;;;;;;2.53;1.05;;;27.00;63.50;;;;;;5025156;28;20242;-77
2022/06/22 12:32:23;;;;;;;1.45;1.25;;;27.00;62.40;;;;;;4988657;28;20603;-79
2022/06/22 12:35:00;;;;;;;3.25;1.30;;;27.10;62.40;;;;;;5017609;28;20215;-78
2022/06/22 12:37:34;;;;;;;1.35;1.17;;;27.10;62.80;;;;;;5018026;28;20242;-73
2022/06/22 12:40:11;;;;;;;1.58;1.33;;;27.20;62.70;;;;;;5024204;28;20225;-79
2022/06/22 12:43:14;;;;;;;2.17;1.30;;;27.30;62.20;;;;;;5026085;28;20264;-77
2022/06/22 12:45:54;;;;;;;3.00;1.23;;;27.40;60.80;;;;;;5021077;28;20203;-77
2022/06/22 12:48:50;;;;;;;2.80;1.73;;;27.70;60.10;;;;;;5014997;28;20206;-76
2022/06/22 12:51:26;;;;;;;1.38;1.15;;;27.60;59.10;;;;;;5018705;28;20223;-77
2022/06/22 12:53:58;;;;;;;3.30;1.13;;;27.60;59.30;;;;;;5023141;28;20241;-76
2022/06/22 12:56:31;;;;;;;2.80;1.38;;;27.60;59.60;;;;;;5023141;28;20207;-77
2022/06/22 12:59:04;;;;;;;2.95;1.20;;;27.60;59.90;;;;;;5017659;28;20237;-77
2022/06/22 13:01:32;;;;;;;2.15;1.85;;;27.50;60.00;;;;;;5032058;28;20203;-76
2022/06/22 13:04:05;;;;;;;2.78;1.48;;;27.40;60.30;;;;;;5016944;28;20222;-77
2022/06/22 13:06:41;;;;;;;1.60;1.27;;;27.30;60.70;;;;;;5017004;28;20211;-78
2022/06/22 13:09:09;;;;;;;4.00;1.27;;;27.10;61.20;;;;;;5024935;28;20218;-76
2022/06/22 13:11:37;;;;;;;4.65;1.20;;;27.10;61.00;;;;;;5032277;28;20218;-77
2022/06/22 13:14:22;;;;;;;1.73;1.30;;;27.20;60.80;;;;;;5017009;28;20690;-77
2022/06/22 13:17:00;;;;;;;1.83;1.52;;;27.20;60.90;;;;;;5018875;28;20231;-76
2022/06/22 13:19:39;;;;;;;1.38;1.20;;;27.20;60.80;;;;;;5016450;28;20243;-77
2022/06/22 13:22:14;;;;;;;2.13;1.20;;;27.20;60.30;;;;;;5019876;28;20636;-76
2022/06/22 13:24:49;;;;;;;1.80;1.27;;;27.20;60.20;;;;;;5018921;28;20686;-76
2022/06/22 13:27:31;;;;;;;1.50;1.17;;;27.20;60.60;;;;;;5025686;28;20212;-77
2022/06/22 13:30:08;;;;;;;2.25;1.05;;;27.10;60.60;;;;;;5018968;28;20247;-77
2022/06/22 13:32:39;;;;;;;1.40;1.00;;;27.10;60.50;;;;;;5023551;28;20208;-75
2022/06/22 13:35:20;;;;;;;1.63;1.40;;;27.20;60.80;;;;;;5035438;28;20660;-77
2022/06/22 13:37:58;;;;;;;2.28;1.55;;;27.30;60.40;;;;;;5016293;28;20301;-76
2022/06/22 13:40:34;;;;;;;1.70;1.33;;;27.20;60.20;;;;;;5030527;28;20229;-77
2022/06/22 13:43:19;;;;;;;3.58;1.50;;;27.10;60.40;;;;;;5028272;28;20224;-76
2022/06/22 13:45:55;;;;;;;3.10;1.10;;;27.10;60.70;;;;;;5016903;28;20567;-78
2022/06/22 13:48:26;;;;;;;1.40;1.27;;;27.20;60.50;;;;;;5017213;28;20202;-76
2022/06/22 13:51:21;;;;;;;1.85;1.10;;;27.10;60.10;;;;;;5034041;28;20221;-78
2022/06/22 13:54:27;;;;;;;1.52;1.10;;;27.00;60.10;;;;;;5020919;28;20207;-76
2022/06/22 13:57:02;;;;;;;4.20;1.20;;;27.10;60.50;;;;;;5023679;28;20249;-76
2022/06/22 13:59:36;;;;;;;4.15;1.52;;;27.00;60.70;;;;;;5022056;28;20221;-78
2022/06/22 14:02:14;;;;;;;4.25;1.23;;;27.10;60.50;;;;;;5025318;28;20207;-77
2022/06/22 14:04:49;;;;;;;1.40;1.13;;;27.20;59.70;;;;;;5016434;28;20203;-76
2022/06/22 14:07:26;;;;;;;3.45;1.30;;;27.30;59.40;;;;;;5016234;28;20242;-78